Pagina principale
METAR-TAF:

METAR-TAF

Aeroporti :

Batajnica, Serbia

latitudine: 44-56-07N, longitudine: 020-15-27E, altezza: 86 m

Osservazione

Il bollettino è stato emesso 27 minuti fa, alle 12:00 UTC
Vento 1 kt da direzioni variabili
Temperature 7°C
Umidità 87%
Pressione 1013 hPa
Visibilità 10 km o più
nessuna nube inferiore a 1500 m e nessun cumulonembo

METAR: LYBT 191200Z VRB01KT CAVOK 07/05 Q1013 NOSIG

Ora: 13:27 (12:27 UTC)

Previsione

Il bollettino è stato emesso 1 ora e 27 minuti fa, alle 11:00 UTC
Previsione valida dal 19 alle 12 UTC al 20 alle 12 UTC
Vento 5 kt da sud-ovest
Visibilità: 8000 m
Nubi sparse ad un'altezza di 3300 ft
Temporaneamente
dal 19 alle 19 UTC al 19 alle 24 UTC
Nuvoloso ad un'altezza di 1000 ft
Nuvoloso ad un'altezza di 3000 ft
Evoluzione graduale
dal 20 alle 03 UTC al 20 alle 05 UTC
Vento 15 kt da nord-ovest

TAF: LYBT 191100Z 1912/2012 22005KT 8000 SCT033 TX08/1912Z TN00/2005Z TEMPO 1919/1924 5000-RA BKN010 BKN030 BECMG 2003/2005 32015KT

Osservazioni e previsioni meteorologiche di più di 4000 aeroporti (messaggi METAR e TAF).

Le stazioni disponibili sono rappresentate dai dischi gialli e rossi sulla carta.

Puntare il mouse per vedere il nome della stazione.

Clicca sopra per visualizzare le osservazioni e previsioni meteorologiche.

Per cambiare la mappa : fare clic sui pulsanti verdi con una croce nera per ingrandire, il pulsante verde con un trattino per diminuire, o sulla freccia verde per le mappe adiacenti.


METAR-TAF: